createdAt,value
2023-05-19T00:01:52.083Z,101886.25
2023-05-19T00:04:37.592Z,101883.28
2023-05-19T00:07:35.072Z,101880.44
2023-05-19T00:10:27.093Z,101886.28
2023-05-19T00:13:11.894Z,101884.28
2023-05-19T00:16:03.125Z,101884.53
2023-05-19T00:18:48.371Z,101880.34
2023-05-19T00:21:40.081Z,101885.28
2023-05-19T00:24:25.098Z,101881.38
2023-05-19T00:27:16.088Z,101879.69
2023-05-19T00:30:01.326Z,101884.88
2023-05-19T00:32:53.131Z,101882.81
2023-05-19T00:35:37.817Z,101882.34
2023-05-19T00:38:29.089Z,101882.81
2023-05-19T00:41:14.018Z,101886.78
2023-05-19T00:44:06.093Z,101889.34
2023-05-19T00:46:50.851Z,101886.31
2023-05-19T00:49:42.097Z,101888.72
2023-05-19T00:52:34.140Z,101885.00
2023-05-19T00:55:27.112Z,101891.13
2023-05-19T00:58:12.641Z,101894.13
2023-05-19T01:01:13.163Z,101891.84
2023-05-19T01:03:59.022Z,101899.06
2023-05-19T01:06:51.090Z,101900.16
2023-05-19T01:09:37.170Z,101901.00
2023-05-19T01:12:29.100Z,101893.63
2023-05-19T01:15:14.886Z,101887.16
2023-05-19T01:18:20.097Z,101880.94
2023-05-19T01:21:30.119Z,101880.94
2023-05-19T01:24:40.818Z,101876.59
2023-05-19T01:27:51.122Z,101881.41
2023-05-19T01:30:51.515Z,101881.41
2023-05-19T01:33:46.140Z,101884.06
2023-05-19T01:36:39.115Z,101883.44
2023-05-19T01:39:25.709Z,101876.84
2023-05-19T01:42:18.118Z,101875.16
2023-05-19T01:45:10.498Z,101880.66
2023-05-19T01:48:04.156Z,101889.31
2023-05-19T01:50:49.374Z,101875.63
2023-05-19T01:53:48.124Z,101879.13
2023-05-19T01:56:52.823Z,101878.03
2023-05-19T02:00:05.143Z,101884.59
2023-05-19T02:03:29.123Z,101886.13
2023-05-19T02:06:40.705Z,101889.72
2023-05-19T02:09:47.127Z,101895.72
2023-05-19T02:12:37.541Z,101899.44
2023-05-19T02:15:33.168Z,101902.75
2023-05-19T02:18:27.109Z,101904.53
2023-05-19T02:21:13.400Z,101903.72
2023-05-19T02:24:05.114Z,101901.19
2023-05-19T02:26:58.147Z,101902.00
2023-05-19T02:29:43.250Z,101904.00
2023-05-19T02:32:34.156Z,101906.59
2023-05-19T02:35:26.134Z,101905.88
2023-05-19T02:38:10.867Z,101902.16
2023-05-19T02:41:02.132Z,101901.19
2023-05-19T02:43:47.393Z,101895.59
2023-05-19T02:46:39.246Z,101894.56
2023-05-19T02:49:31.131Z,101901.03
2023-05-19T02:52:22.266Z,101892.59
2023-05-19T02:55:23.124Z,101894.47
2023-05-19T02:58:08.336Z,101890.53
2023-05-19T03:01:00.144Z,101894.59
2023-05-19T03:03:45.045Z,101891.72
2023-05-19T03:06:39.148Z,101887.75
2023-05-19T03:09:24.049Z,101890.00
2023-05-19T03:12:15.150Z,101881.22
2023-05-19T03:15:00.625Z,101885.78
2023-05-19T03:17:52.272Z,101885.72
2023-05-19T03:20:39.586Z,101886.19
2023-05-19T03:23:33.139Z,101891.22
2023-05-19T03:26:18.027Z,101887.56
2023-05-19T03:29:09.146Z,101894.31
2023-05-19T03:31:53.929Z,101896.13
2023-05-19T03:34:45.144Z,101901.09
2023-05-19T03:37:37.167Z,101892.97
2023-05-19T03:40:22.328Z,101891.06
2023-05-19T03:43:14.134Z,101888.28
2023-05-19T03:45:59.013Z,101888.94
2023-05-19T03:48:50.149Z,101889.78
2023-05-19T03:51:41.213Z,101894.41
2023-05-19T03:54:39.160Z,101889.06
2023-05-19T03:57:31.152Z,101890.72
2023-05-19T04:00:16.608Z,101891.06
2023-05-19T04:03:08.418Z,101892.97
2023-05-19T04:05:53.538Z,101894.47
2023-05-19T04:08:46.155Z,101890.78
2023-05-19T04:11:37.205Z,101888.63
2023-05-19T04:14:22.251Z,101891.41
2023-05-19T04:17:14.154Z,101889.28
2023-05-19T04:20:06.175Z,101894.66
2023-05-19T04:22:57.172Z,101892.63
2023-05-19T04:25:42.405Z,101885.41
2023-05-19T04:28:34.182Z,101895.16
2023-05-19T04:31:21.572Z,101882.47
2023-05-19T04:34:16.145Z,101893.31
2023-05-19T04:37:08.162Z,101898.72
2023-05-19T04:40:00.165Z,101897.44
2023-05-19T04:42:46.186Z,101892.91
2023-05-19T04:45:39.167Z,101883.19
2023-05-19T04:48:24.141Z,101887.66
2023-05-19T04:51:16.165Z,101886.03
2023-05-19T04:54:07.261Z,101888.06
2023-05-19T04:56:59.183Z,101890.88
2023-05-19T04:59:43.931Z,101892.19
2023-05-19T05:02:35.198Z,101897.72
2023-05-19T05:05:19.959Z,101889.22
2023-05-19T05:08:12.163Z,101892.47
2023-05-19T05:10:57.594Z,101889.81
2023-05-19T05:13:49.184Z,101889.72
2023-05-19T05:16:34.700Z,101888.63
2023-05-19T05:19:26.251Z,101882.31
2023-05-19T05:22:18.167Z,101881.00
2023-05-19T05:25:04.002Z,101880.72
2023-05-19T05:27:55.162Z,101875.25
2023-05-19T05:30:48.168Z,101883.84
2023-05-19T05:33:39.184Z,101881.91
2023-05-19T05:36:24.293Z,101879.16
2023-05-19T05:39:16.158Z,101877.91
2023-05-19T05:42:01.130Z,101877.16
2023-05-19T05:44:53.162Z,101882.50
2023-05-19T05:47:39.654Z,101874.75
2023-05-19T05:50:34.179Z,101865.03
2023-05-19T05:53:26.858Z,101866.31
2023-05-19T05:56:19.183Z,101868.84
2023-05-19T05:59:05.602Z,101851.69
2023-05-19T06:01:57.222Z,101853.50
2023-05-19T06:04:48.179Z,101850.63
2023-05-19T06:07:33.087Z,101860.41
2023-05-19T06:10:24.214Z,101856.88
2023-05-19T06:13:16.172Z,101863.88
2023-05-19T06:16:02.203Z,101862.06
2023-05-19T06:18:54.178Z,101851.31
2023-05-19T06:21:45.214Z,101850.63
2023-05-19T06:24:30.856Z,101856.38
2023-05-19T06:27:22.320Z,101852.34
2023-05-19T06:30:08.600Z,101848.44
2023-05-19T06:33:00.279Z,101851.25
2023-05-19T06:35:45.230Z,101846.63
2023-05-19T06:38:38.170Z,101843.84
2023-05-19T06:41:29.231Z,101846.06
2023-05-19T06:44:14.022Z,101843.97
2023-05-19T06:47:05.249Z,101849.44
2023-05-19T06:50:02.197Z,101842.06
2023-05-19T06:53:01.204Z,101841.44
2023-05-19T06:55:59.255Z,101845.78
2023-05-19T06:58:52.208Z,101842.22
2023-05-19T07:01:37.002Z,101844.44
2023-05-19T07:04:28.185Z,101839.44
2023-05-19T07:07:13.357Z,101842.38
2023-05-19T07:10:05.190Z,101848.91
2023-05-19T07:12:50.499Z,101850.59
2023-05-19T07:15:42.220Z,101839.31
2023-05-19T07:18:27.237Z,101840.16
2023-05-19T07:21:18.203Z,101829.94
2023-05-19T07:24:03.430Z,101828.28
2023-05-19T07:26:55.204Z,101827.34
2023-05-19T07:29:40.349Z,101827.81
2023-05-19T07:32:32.265Z,101823.63
2023-05-19T07:35:17.202Z,101832.31
2023-05-19T07:38:09.219Z,101835.66
2023-05-19T07:40:54.199Z,101828.88
2023-05-19T07:43:45.193Z,101828.94
2023-05-19T07:46:30.305Z,101822.63
2023-05-19T07:49:21.196Z,101811.41
2023-05-19T07:52:13.248Z,101809.31
2023-05-19T07:55:11.215Z,101807.09
2023-05-19T07:57:57.150Z,101807.00
2023-05-19T08:00:52.212Z,101806.06
2023-05-19T08:03:37.266Z,101805.69
2023-05-19T08:06:29.228Z,101798.53
2023-05-19T08:09:21.219Z,101801.13
2023-05-19T08:12:13.231Z,101800.13
2023-05-19T08:15:04.216Z,101787.88
2023-05-19T08:17:49.203Z,101801.28
2023-05-19T08:20:41.224Z,101789.13
2023-05-19T08:23:26.612Z,101790.53
2023-05-19T08:26:18.216Z,101786.16
2023-05-19T08:29:03.305Z,101777.66
2023-05-19T08:31:54.266Z,101779.91
2023-05-19T08:34:45.241Z,101781.06
2023-05-19T08:37:37.234Z,101776.53
2023-05-19T08:40:22.944Z,101768.28
2023-05-19T08:43:15.255Z,101767.09
2023-05-19T08:46:07.263Z,101775.16
2023-05-19T08:48:58.467Z,101772.31
2023-05-19T08:52:12.237Z,101770.22
2023-05-19T08:55:17.281Z,101769.16
2023-05-19T08:58:04.821Z,101755.97
2023-05-19T09:00:57.287Z,101759.25
2023-05-19T09:03:43.512Z,101767.47
2023-05-19T09:06:38.241Z,101757.44
2023-05-19T09:09:23.350Z,101757.44
2023-05-19T09:12:15.272Z,101753.44
2023-05-19T09:15:01.046Z,101747.28
2023-05-19T09:17:54.357Z,101743.13
2023-05-19T09:20:41.406Z,101748.41
2023-05-19T09:23:38.258Z,101737.41
2023-05-19T09:26:30.240Z,101727.66
2023-05-19T09:29:17.045Z,101726.03
2023-05-19T09:32:11.273Z,101728.53
2023-05-19T09:35:03.237Z,101718.59
2023-05-19T09:37:55.270Z,101713.88
2023-05-19T09:40:46.240Z,101721.97
2023-05-19T09:43:35.564Z,101716.53
2023-05-19T09:46:34.283Z,101718.25
2023-05-19T09:49:25.687Z,101717.44
2023-05-19T09:52:17.259Z,101717.84
2023-05-19T09:55:19.293Z,101709.84
2023-05-19T09:58:04.744Z,101713.66
2023-05-19T10:00:57.284Z,101708.03
2023-05-19T10:03:42.346Z,101701.72
2023-05-19T10:06:34.274Z,101706.50
2023-05-19T10:09:33.282Z,101704.03
2023-05-19T10:12:18.137Z,101698.22
2023-05-19T10:15:10.286Z,101693.19
2023-05-19T10:17:56.731Z,101695.16
2023-05-19T10:20:49.289Z,101688.56
2023-05-19T10:23:41.280Z,101681.69
2023-05-19T10:26:27.198Z,101692.59
2023-05-19T10:29:22.302Z,101681.97
2023-05-19T10:32:13.498Z,101676.38
2023-05-19T10:35:34.432Z,101681.13
2023-05-19T10:38:42.990Z,101673.00
2023-05-19T10:41:58.282Z,101665.81
2023-05-19T10:45:09.276Z,101672.63
2023-05-19T10:47:54.600Z,101667.44
2023-05-19T10:50:46.285Z,101676.78
2023-05-19T10:53:39.339Z,101680.84
2023-05-19T10:56:41.290Z,101670.84
2023-05-19T10:59:35.152Z,101660.53
2023-05-19T11:03:02.366Z,101653.78
2023-05-19T11:05:50.714Z,101654.34
2023-05-19T11:08:43.310Z,101656.38
2023-05-19T11:11:51.316Z,101656.13
2023-05-19T11:14:36.210Z,101654.81
2023-05-19T11:17:28.318Z,101650.75
2023-05-19T11:20:34.352Z,101653.03
2023-05-19T11:23:28.348Z,101648.50
2023-05-19T11:26:13.391Z,101645.94
2023-05-19T11:29:04.311Z,101639.28
2023-05-19T11:31:49.785Z,101641.53
2023-05-19T11:34:42.338Z,101634.97
2023-05-19T11:37:28.954Z,101630.94
2023-05-19T11:40:22.322Z,101627.00
2023-05-19T11:43:14.346Z,101636.44
2023-05-19T11:45:59.388Z,101629.72
2023-05-19T11:48:54.317Z,101626.91
2023-05-19T11:51:46.323Z,101627.00
2023-05-19T11:54:48.318Z,101621.41
2023-05-19T11:57:32.964Z,101616.75
2023-05-19T12:00:29.337Z,101614.19
2023-05-19T12:03:21.411Z,101605.44
2023-05-19T12:06:08.315Z,101606.81
2023-05-19T12:09:03.308Z,101600.72
2023-05-19T12:11:49.728Z,101598.88
2023-05-19T12:14:42.348Z,101605.56
2023-05-19T12:17:27.898Z,101594.31
2023-05-19T12:20:19.354Z,101588.13
2023-05-19T12:23:05.660Z,101586.84
2023-05-19T12:25:57.343Z,101578.78
2023-05-19T12:28:45.224Z,101579.88
2023-05-19T12:31:37.393Z,101573.56
2023-05-19T12:34:23.069Z,101578.16
2023-05-19T12:37:14.327Z,101568.75
2023-05-19T12:39:59.939Z,101571.81
2023-05-19T12:42:52.343Z,101570.31
2023-05-19T12:45:39.311Z,101561.75
2023-05-19T12:48:30.332Z,101563.22
2023-05-19T12:51:26.355Z,101556.31
2023-05-19T12:54:23.523Z,101556.81
2023-05-19T12:57:17.382Z,101563.81
2023-05-19T13:00:06.845Z,101561.56
2023-05-19T13:03:11.413Z,101553.06
2023-05-19T13:06:06.356Z,101553.28
2023-05-19T13:08:58.334Z,101558.75
2023-05-19T13:11:50.405Z,101557.09
2023-05-19T13:14:35.433Z,101545.38
2023-05-19T13:17:27.398Z,101543.09
2023-05-19T13:20:13.385Z,101531.72
2023-05-19T13:23:04.392Z,101532.53
2023-05-19T13:25:57.359Z,101536.72
2023-05-19T13:28:42.091Z,101529.66
2023-05-19T13:31:34.434Z,101533.19
2023-05-19T13:34:26.349Z,101536.50
2023-05-19T13:37:18.425Z,101522.81
2023-05-19T13:40:03.606Z,101526.13
2023-05-19T13:42:54.386Z,101525.91
2023-05-19T13:45:53.451Z,101519.25
2023-05-19T13:48:51.362Z,101524.41
2023-05-19T13:51:42.380Z,101524.31
2023-05-19T13:54:33.679Z,101515.13
2023-05-19T13:57:32.381Z,101508.31
2023-05-19T14:00:25.398Z,101496.88
2023-05-19T14:03:17.519Z,101494.78
2023-05-19T14:06:02.971Z,101484.06
2023-05-19T14:08:54.397Z,101488.78
2023-05-19T14:11:39.135Z,101491.91
2023-05-19T14:14:31.389Z,101495.25
2023-05-19T14:17:16.298Z,101494.44
2023-05-19T14:20:08.397Z,101497.13
2023-05-19T14:23:01.389Z,101498.22
2023-05-19T14:25:46.483Z,101491.47
2023-05-19T14:28:37.384Z,101494.66
2023-05-19T14:31:29.440Z,101487.81
2023-05-19T14:34:17.761Z,101484.88
2023-05-19T14:37:09.502Z,101479.44
2023-05-19T14:39:54.750Z,101476.13
2023-05-19T14:42:46.397Z,101476.72
2023-05-19T14:45:31.396Z,101485.06
2023-05-19T14:48:22.447Z,101480.09
2023-05-19T14:51:07.205Z,101469.03
2023-05-19T14:54:05.406Z,101465.38
2023-05-19T14:56:57.574Z,101462.13
2023-05-19T14:59:49.376Z,101467.16
2023-05-19T15:02:34.347Z,101474.28
2023-05-19T15:05:25.406Z,101480.50
2023-05-19T15:08:10.401Z,101466.63
2023-05-19T15:11:02.403Z,101469.72
2023-05-19T15:13:53.410Z,101456.25
2023-05-19T15:16:44.435Z,101456.63
2023-05-19T15:19:35.426Z,101456.16
2023-05-19T15:22:26.408Z,101447.13
2023-05-19T15:25:18.406Z,101441.00
2023-05-19T15:28:10.420Z,101446.56
2023-05-19T15:30:55.704Z,101443.88
2023-05-19T15:33:47.426Z,101445.69
2023-05-19T15:36:39.405Z,101449.19
2023-05-19T15:39:24.384Z,101435.22
2023-05-19T15:42:15.423Z,101436.97
2023-05-19T15:45:00.412Z,101435.75
2023-05-19T15:47:52.586Z,101432.06
2023-05-19T15:50:37.784Z,101432.03
2023-05-19T15:53:29.441Z,101428.34
2023-05-19T15:56:21.429Z,101423.97
2023-05-19T15:59:13.445Z,101426.84
2023-05-19T16:01:58.418Z,101420.38
2023-05-19T16:04:49.424Z,101422.28
2023-05-19T16:07:34.113Z,101423.53
2023-05-19T16:10:25.422Z,101420.22
2023-05-19T16:13:10.429Z,101406.53
2023-05-19T16:16:02.481Z,101408.16
2023-05-19T16:18:47.367Z,101406.91
2023-05-19T16:21:39.449Z,101404.88
2023-05-19T16:24:24.567Z,101408.34
2023-05-19T16:27:16.454Z,101406.03
2023-05-19T16:30:02.458Z,101397.59
2023-05-19T16:32:53.525Z,101404.09
2023-05-19T16:35:38.284Z,101400.34
2023-05-19T16:38:30.444Z,101389.31
2023-05-19T16:41:15.353Z,101390.31
2023-05-19T16:44:08.444Z,101392.25
2023-05-19T16:46:59.464Z,101385.59
2023-05-19T16:49:44.409Z,101383.66
2023-05-19T16:52:36.456Z,101380.59
2023-05-19T16:55:27.642Z,101378.09
2023-05-19T16:58:19.455Z,101380.78
2023-05-19T17:01:04.421Z,101373.94
2023-05-19T17:03:55.559Z,101375.31
2023-05-19T17:06:47.473Z,101372.66
2023-05-19T17:09:39.433Z,101372.88
2023-05-19T17:12:24.439Z,101369.75
2023-05-19T17:15:16.447Z,101377.63
2023-05-19T17:18:07.521Z,101375.13
2023-05-19T17:20:52.403Z,101375.59
2023-05-19T17:23:44.455Z,101382.25
2023-05-19T17:26:29.196Z,101381.91
2023-05-19T17:29:20.484Z,101380.03
2023-05-19T17:32:05.882Z,101378.84
2023-05-19T17:34:57.453Z,101383.38
2023-05-19T17:37:42.612Z,101385.69
2023-05-19T17:40:34.741Z,101381.13
2023-05-19T17:43:20.229Z,101386.69
2023-05-19T17:46:12.495Z,101393.53
2023-05-19T17:48:57.352Z,101389.19
2023-05-19T17:51:49.465Z,101388.13
2023-05-19T17:54:41.506Z,101393.06
2023-05-19T17:57:41.494Z,101398.81
2023-05-19T18:00:26.674Z,101403.19
2023-05-19T18:03:18.644Z,101404.41
2023-05-19T18:06:03.994Z,101417.03
2023-05-19T18:08:57.462Z,101418.50
2023-05-19T18:11:42.188Z,101412.09
2023-05-19T18:14:33.464Z,101417.06
2023-05-19T18:17:18.452Z,101420.59
2023-05-19T18:20:10.493Z,101412.50
2023-05-19T18:22:55.601Z,101422.16
2023-05-19T18:25:47.495Z,101426.91
2023-05-19T18:28:32.530Z,101427.13
2023-05-19T18:31:25.494Z,101422.53
2023-05-19T18:34:10.548Z,101422.69
2023-05-19T18:37:02.552Z,101427.88
2023-05-19T18:39:47.705Z,101430.16
2023-05-19T18:42:39.503Z,101425.34
2023-05-19T18:45:24.722Z,101427.19
2023-05-19T18:48:16.530Z,101428.66
2023-05-19T18:51:03.541Z,101435.66
2023-05-19T18:53:57.507Z,101431.91
2023-05-19T18:56:56.508Z,101433.06
2023-05-19T18:59:41.597Z,101448.72
2023-05-19T19:02:33.556Z,101453.88
2023-05-19T19:05:18.576Z,101448.06
2023-05-19T19:08:11.574Z,101450.25
2023-05-19T19:11:06.510Z,101442.59
2023-05-19T19:14:00.517Z,101452.03
2023-05-19T19:16:45.649Z,101456.66
2023-05-19T19:19:37.630Z,101467.34
2023-05-19T19:22:29.503Z,101472.53
2023-05-19T19:25:14.364Z,101475.53
2023-05-19T19:28:05.506Z,101476.94
2023-05-19T19:30:50.412Z,101482.69
2023-05-19T19:33:41.492Z,101479.38
2023-05-19T19:36:26.625Z,101479.91
2023-05-19T19:39:18.512Z,101489.91
2023-05-19T19:42:03.470Z,101486.91
2023-05-19T19:44:54.504Z,101503.19
2023-05-19T19:47:39.362Z,101498.13
2023-05-19T19:50:31.717Z,101502.59
2023-05-19T19:53:37.524Z,101504.75
2023-05-19T19:56:31.512Z,101506.59
2023-05-19T19:59:16.457Z,101501.13
2023-05-19T20:02:08.564Z,101497.69
2023-05-19T20:04:53.761Z,101504.19
2023-05-19T20:07:44.514Z,101502.72
2023-05-19T20:10:29.428Z,101499.56
2023-05-19T20:13:21.538Z,101504.38
2023-05-19T20:16:06.963Z,101508.81
2023-05-19T20:18:58.585Z,101505.94
2023-05-19T20:21:43.360Z,101509.06
2023-05-19T20:24:34.517Z,101516.34
2023-05-19T20:27:19.445Z,101509.78
2023-05-19T20:30:11.529Z,101513.38
2023-05-19T20:33:03.611Z,101518.94
2023-05-19T20:35:48.857Z,101524.53
2023-05-19T20:38:40.521Z,101531.44
2023-05-19T20:41:32.532Z,101527.94
2023-05-19T20:44:23.534Z,101529.56
2023-05-19T20:47:08.808Z,101530.59
2023-05-19T20:50:00.532Z,101537.34
2023-05-19T20:52:52.537Z,101534.44
2023-05-19T20:55:45.443Z,101533.34
2023-05-19T20:58:37.522Z,101533.78
2023-05-19T21:01:22.587Z,101538.25
2023-05-19T21:04:13.569Z,101542.72
2023-05-19T21:06:58.820Z,101539.19
2023-05-19T21:09:52.542Z,101552.13
2023-05-19T21:12:37.408Z,101550.28
2023-05-19T21:15:28.536Z,101553.75
2023-05-19T21:18:13.344Z,101551.63
2023-05-19T21:21:08.571Z,101552.31
2023-05-19T21:23:59.539Z,101554.22
2023-05-19T21:26:44.700Z,101553.06
2023-05-19T21:29:36.577Z,101555.34
2023-05-19T21:32:28.567Z,101556.09
2023-05-19T21:35:20.545Z,101554.09
2023-05-19T21:38:15.644Z,101554.44
2023-05-19T21:41:14.542Z,101558.69
2023-05-19T21:44:05.531Z,101550.91
2023-05-19T21:46:50.923Z,101553.16
2023-05-19T21:49:42.549Z,101557.81
2023-05-19T21:52:27.656Z,101563.97
2023-05-19T21:55:25.553Z,101555.81
2023-05-19T21:58:23.571Z,101554.47
2023-05-19T22:01:15.550Z,101560.13
2023-05-19T22:04:07.759Z,101563.34
2023-05-19T22:06:59.582Z,101567.50
2023-05-19T22:09:51.554Z,101556.50
2023-05-19T22:12:36.568Z,101557.50
2023-05-19T22:15:28.548Z,101559.34
2023-05-19T22:18:13.561Z,101560.88
2023-05-19T22:21:05.565Z,101564.69
2023-05-19T22:23:51.907Z,101569.41
2023-05-19T22:26:43.569Z,101566.44
2023-05-19T22:29:28.596Z,101562.94
2023-05-19T22:32:20.559Z,101568.13
2023-05-19T22:35:06.430Z,101557.09
2023-05-19T22:37:57.572Z,101558.94
2023-05-19T22:40:42.400Z,101567.28
2023-05-19T22:43:34.568Z,101561.09
2023-05-19T22:46:19.459Z,101562.09
2023-05-19T22:49:10.564Z,101564.59
2023-05-19T22:52:02.568Z,101556.56
2023-05-19T22:54:54.606Z,101556.38
2023-05-19T22:57:52.566Z,101558.19
2023-05-19T23:00:37.735Z,101556.34
2023-05-19T23:03:28.567Z,101563.69
2023-05-19T23:06:13.379Z,101568.50
2023-05-19T23:09:07.591Z,101561.97
2023-05-19T23:11:53.342Z,101564.81
2023-05-19T23:14:44.574Z,101562.13
2023-05-19T23:17:29.656Z,101564.41
2023-05-19T23:20:21.573Z,101560.56
2023-05-19T23:23:06.446Z,101547.88
2023-05-19T23:25:57.568Z,101551.72
2023-05-19T23:28:43.168Z,101544.22
2023-05-19T23:31:34.967Z,101552.34
2023-05-19T23:34:20.146Z,101555.66
2023-05-19T23:37:11.572Z,101548.66
2023-05-19T23:39:56.466Z,101557.66
2023-05-19T23:42:47.597Z,101559.13
2023-05-19T23:45:32.557Z,101545.13
2023-05-19T23:48:24.606Z,101545.13
2023-05-19T23:51:09.487Z,101549.38
2023-05-19T23:54:00.574Z,101555.69
2023-05-19T23:56:51.704Z,101552.19
2023-05-19T23:59:43.584Z,101554.66
